sensor_id;sensor_type;location;lat;lon;timestamp;pressure;altitude;pressure_sealevel;temperature;humidity
68525;BME280;55524;51.380;13.372;2022-11-23T00:00:20;99415.09;;;0.60;100.00
68525;BME280;55524;51.380;13.372;2022-11-23T00:03:16;99413.38;;;0.57;100.00
68525;BME280;55524;51.380;13.372;2022-11-23T00:05:42;99416.81;;;0.61;100.00
68525;BME280;55524;51.380;13.372;2022-11-23T00:08:29;99414.25;;;0.58;100.00
68525;BME280;55524;51.380;13.372;2022-11-23T00:11:19;99415.09;;;0.58;100.00
68525;BME280;55524;51.380;13.372;2022-11-23T00:14:05;99417.69;;;0.58;100.00
68525;BME280;55524;51.380;13.372;2022-11-23T00:16:51;99415.13;;;0.57;100.00
68525;BME280;55524;51.380;13.372;2022-11-23T00:19:38;99412.53;;;0.55;100.00
68525;BME280;55524;51.380;13.372;2022-11-23T00:25:17;99411.78;;;0.48;100.00
68525;BME280;55524;51.380;13.372;2022-11-23T00:27:43;99417.94;;;0.41;100.00
68525;BME280;55524;51.380;13.372;2022-11-23T00:30:33;99415.38;;;0.38;100.00
68525;BME280;55524;51.380;13.372;2022-11-23T00:33:20;99418.00;;;0.37;100.00
68525;BME280;55524;51.380;13.372;2022-11-23T00:38:33;99415.44;;;0.34;100.00
68525;BME280;55524;51.380;13.372;2022-11-23T00:41:39;99416.16;;;0.43;100.00
68525;BME280;55524;51.380;13.372;2022-11-23T00:44:05;99415.34;;;0.41;100.00
68525;BME280;55524;51.380;13.372;2022-11-23T00:46:53;99412.75;;;0.40;100.00
68525;BME280;55524;51.380;13.372;2022-11-23T00:49:48;99418.75;;;0.45;100.00
68525;BME280;55524;51.380;13.372;2022-11-23T00:52:15;99414.34;;;0.50;100.00
68525;BME280;55524;51.380;13.372;2022-11-23T00:54:41;99420.50;;;0.44;100.00
68525;BME280;55524;51.380;13.372;2022-11-23T00:57:33;99416.94;;;0.50;100.00
68525;BME280;55524;51.380;13.372;2022-11-23T01:00:20;99415.22;;;0.47;100.00
68525;BME280;55524;51.380;13.372;2022-11-23T01:03:07;99416.94;;;0.52;100.00
68525;BME280;55524;51.380;13.372;2022-11-23T01:05:56;99426.56;;;0.45;100.00
68525;BME280;55524;51.380;13.372;2022-11-23T01:08:42;99421.34;;;0.45;100.00
68525;BME280;55524;51.380;13.372;2022-11-23T01:11:32;99426.56;;;0.45;100.00
68525;BME280;55524;51.380;13.372;2022-11-23T01:14:19;99420.44;;;0.49;100.00
68525;BME280;55524;51.380;13.372;2022-11-23T01:17:02;99429.16;;;0.45;100.00
68525;BME280;55524;51.380;13.372;2022-11-23T01:19:52;99423.03;;;0.47;100.00
68525;BME280;55524;51.380;13.372;2022-11-23T01:22:18;99427.41;;;0.45;100.00
68525;BME280;55524;51.380;13.372;2022-11-23T01:24:45;99425.63;;;0.47;100.00
68525;BME280;55524;51.380;13.372;2022-11-23T01:27:14;99425.75;;;0.40;100.00
68525;BME280;55524;51.380;13.372;2022-11-23T01:30:18;99431.78;;;0.42;100.00
68525;BME280;55524;51.380;13.372;2022-11-23T01:32:56;99427.50;;;0.38;100.00
68525;BME280;55524;51.380;13.372;2022-11-23T01:38:12;99428.59;;;0.18;100.00
68525;BME280;55524;51.380;13.372;2022-11-23T01:43:59;99435.78;;;-0.04;100.00
68525;BME280;55524;51.380;13.372;2022-11-23T01:46:28;99440.19;;;-0.10;100.00
68525;BME280;55524;51.380;13.372;2022-11-23T01:49:34;99434.22;;;-0.20;100.00
68525;BME280;55524;51.380;13.372;2022-11-23T01:55:51;99429.13;;;-0.29;100.00
68525;BME280;55524;51.380;13.372;2022-11-23T01:58:59;99438.66;;;-0.30;100.00
68525;BME280;55524;51.380;13.372;2022-11-23T02:04:46;99436.97;;;-0.34;100.00
68525;BME280;55524;51.380;13.372;2022-11-23T02:07:45;99426.59;;;-0.37;100.00
68525;BME280;55524;51.380;13.372;2022-11-23T02:10:21;99431.66;;;-0.25;100.00
68525;BME280;55524;51.380;13.372;2022-11-23T02:12:51;99425.66;;;-0.30;100.00
68525;BME280;55524;51.380;13.372;2022-11-23T02:18:33;99430.91;;;-0.36;100.00
68525;BME280;55524;51.380;13.372;2022-11-23T02:21:22;99432.66;;;-0.38;100.00
68525;BME280;55524;51.380;13.372;2022-11-23T02:26:53;99431.78;;;-0.37;100.00
68525;BME280;55524;51.380;13.372;2022-11-23T02:29:44;99429.22;;;-0.40;100.00
68525;BME280;55524;51.380;13.372;2022-11-23T02:32:10;99431.84;;;-0.44;100.00
68525;BME280;55524;51.380;13.372;2022-11-23T02:35:14;99432.72;;;-0.44;100.00
68525;BME280;55524;51.380;13.372;2022-11-23T02:38:12;99430.88;;;-0.33;100.00
68525;BME280;55524;51.380;13.372;2022-11-23T02:40:39;99434.25;;;-0.23;100.00
68525;BME280;55524;51.380;13.372;2022-11-23T02:46:32;99441.00;;;-0.08;100.00
68525;BME280;55524;51.380;13.372;2022-11-23T02:48:58;99447.03;;;-0.05;100.00
68525;BME280;55524;51.380;13.372;2022-11-23T02:51:43;99440.97;;;-0.02;100.00
68525;BME280;55524;51.380;13.372;2022-11-23T02:54:55;99446.13;;;0.01;100.00
68525;BME280;55524;51.380;13.372;2022-11-23T02:57:59;99452.94;;;0.10;100.00
68525;BME280;55524;51.380;13.372;2022-11-23T03:00:35;99446.84;;;0.14;100.00
68525;BME280;55524;51.380;13.372;2022-11-23T03:03:07;99451.19;;;0.13;100.00
68525;BME280;55524;51.380;13.372;2022-11-23T03:06:06;99456.28;;;0.19;100.00
68525;BME280;55524;51.380;13.372;2022-11-23T03:08:56;99468.34;;;0.27;100.00
68525;BME280;55524;51.380;13.372;2022-11-23T03:11:42;99461.34;;;0.32;100.00
68525;BME280;55524;51.380;13.372;2022-11-23T03:14:26;99461.34;;;0.32;100.00
68525;BME280;55524;51.380;13.372;2022-11-23T03:17:04;99466.53;;;0.33;100.00
68525;BME280;55524;51.380;13.372;2022-11-23T03:20:08;99465.75;;;0.27;100.00
68525;BME280;55524;51.380;13.372;2022-11-23T03:22:55;99469.28;;;0.21;100.00
68525;BME280;55524;51.380;13.372;2022-11-23T03:26:02;99465.00;;;0.17;100.00
68525;BME280;55524;51.380;13.372;2022-11-23T03:28:37;99460.66;;;0.17;100.00
68525;BME280;55524;51.380;13.372;2022-11-23T03:31:24;99463.22;;;0.19;100.00
68525;BME280;55524;51.380;13.372;2022-11-23T03:33:50;99462.28;;;0.26;100.00
68525;BME280;55524;51.380;13.372;2022-11-23T03:36:19;99456.13;;;0.35;100.00
68525;BME280;55524;51.380;13.372;2022-11-23T03:38:54;99459.53;;;0.38;100.00
68525;BME280;55524;51.380;13.372;2022-11-23T03:44:30;99464.72;;;0.40;100.00
68525;BME280;55524;51.380;13.372;2022-11-23T03:47:17;99469.88;;;0.43;100.00
68525;BME280;55524;51.380;13.372;2022-11-23T03:49:58;99476.78;;;0.45;100.00
68525;BME280;55524;51.380;13.372;2022-11-23T03:52:45;99474.22;;;0.44;100.00
68525;BME280;55524;51.380;13.372;2022-11-23T03:55:22;99465.50;;;0.46;100.00
68525;BME280;55524;51.380;13.372;2022-11-23T03:57:55;99475.94;;;0.42;100.00
68525;BME280;55524;51.380;13.372;2022-11-23T04:00:48;99482.88;;;0.43;100.00
68525;BME280;55524;51.380;13.372;2022-11-23T04:03:34;99480.25;;;0.43;100.00
68525;BME280;55524;51.380;13.372;2022-11-23T04:06:21;99481.97;;;0.45;100.00
68525;BME280;55524;51.380;13.372;2022-11-23T04:09:16;99481.09;;;0.48;100.00
68525;BME280;55524;51.380;13.372;2022-11-23T04:11:45;99470.63;;;0.53;100.00
68525;BME280;55524;51.380;13.372;2022-11-23T04:14:38;99470.59;;;0.56;100.00
68525;BME280;55524;51.380;13.372;2022-11-23T04:20:40;99473.91;;;0.68;100.00
68525;BME280;55524;51.380;13.372;2022-11-23T04:23:09;99473.88;;;0.71;100.00
68525;BME280;55524;51.380;13.372;2022-11-23T04:25:55;99474.69;;;0.73;100.00
68525;BME280;55524;51.380;13.372;2022-11-23T04:31:22;99478.81;;;0.88;100.00
68525;BME280;55524;51.380;13.372;2022-11-23T04:34:15;99477.03;;;0.90;100.00
68525;BME280;55524;51.380;13.372;2022-11-23T04:37:01;99484.78;;;0.95;100.00
68525;BME280;55524;51.380;13.372;2022-11-23T04:39:48;99477.03;;;0.92;100.00
68525;BME280;55524;51.380;13.372;2022-11-23T04:42:17;99478.72;;;0.94;100.00
68525;BME280;55524;51.380;13.372;2022-11-23T04:44:43;99481.28;;;0.97;100.00
68525;BME280;55524;51.380;13.372;2022-11-23T04:47:19;99479.53;;;0.98;100.00
68525;BME280;55524;51.380;13.372;2022-11-23T04:52:41;99486.50;;;0.99;100.00
68525;BME280;55524;51.380;13.372;2022-11-23T04:55:46;99485.59;;;1.00;100.00
68525;BME280;55524;51.380;13.372;2022-11-23T04:58:12;99487.31;;;1.01;100.00
68525;BME280;55524;51.380;13.372;2022-11-23T05:01:20;99478.63;;;1.02;100.00
68525;BME280;55524;51.380;13.372;2022-11-23T05:03:58;99478.50;;;1.10;100.00
68525;BME280;55524;51.380;13.372;2022-11-23T05:06:24;99475.06;;;1.09;100.00
68525;BME280;55524;51.380;13.372;2022-11-23T05:12:20;99479.41;;;1.09;100.00
68525;BME280;55524;51.380;13.372;2022-11-23T05:15:13;99481.94;;;1.13;100.00
68525;BME280;55524;51.380;13.372;2022-11-23T05:17:45;99473.13;;;1.22;100.00
68525;BME280;55524;51.380;13.372;2022-11-23T05:20:17;99476.59;;;1.21;100.00
68525;BME280;55524;51.380;13.372;2022-11-23T05:23:11;99480.00;;;1.26;100.00
68525;BME280;55524;51.380;13.372;2022-11-23T05:26:00;99477.38;;;1.28;100.00
68525;BME280;55524;51.380;13.372;2022-11-23T05:28:35;99478.09;;;1.37;100.00
68525;BME280;55524;51.380;13.372;2022-11-23T05:31:03;99477.16;;;1.41;100.00
68525;BME280;55524;51.380;13.372;2022-11-23T05:33:53;99477.19;;;1.40;100.00
68525;BME280;55524;51.380;13.372;2022-11-23T05:36:42;99471.00;;;1.45;100.00
68525;BME280;55524;51.380;13.372;2022-11-23T05:39:20;99481.50;;;1.41;100.00
68525;BME280;55524;51.380;13.372;2022-11-23T05:41:49;99479.75;;;1.41;100.00
68525;BME280;55524;51.380;13.372;2022-11-23T05:44:45;99478.91;;;1.41;100.00
68525;BME280;55524;51.380;13.372;2022-11-23T05:47:35;99478.84;;;1.44;100.00
68525;BME280;55524;51.380;13.372;2022-11-23T05:50:22;99480.56;;;1.45;100.00
68525;BME280;55524;51.380;13.372;2022-11-23T05:52:57;99488.38;;;1.45;100.00
68525;BME280;55524;51.380;13.372;2022-11-23T05:55:45;99484.06;;;1.44;100.00
68525;BME280;55524;51.380;13.372;2022-11-23T05:58:32;99476.13;;;1.52;100.00
68525;BME280;55524;51.380;13.372;2022-11-23T06:01:19;99471.78;;;1.52;100.00
68525;BME280;55524;51.380;13.372;2022-11-23T06:03:45;99479.56;;;1.54;100.00
68525;BME280;55524;51.380;13.372;2022-11-23T06:06:51;99473.53;;;1.50;100.00
68525;BME280;55524;51.380;13.372;2022-11-23T06:09:40;99475.31;;;1.48;100.00
68525;BME280;55524;51.380;13.372;2022-11-23T06:12:06;99477.88;;;1.51;100.00
68525;BME280;55524;51.380;13.372;2022-11-23T06:14:32;99481.34;;;1.52;100.00
68525;BME280;55524;51.380;13.372;2022-11-23T06:17:19;99485.69;;;1.51;100.00
68525;BME280;55524;51.380;13.372;2022-11-23T06:19:45;99484.75;;;1.55;100.00
68525;BME280;55524;51.380;13.372;2022-11-23T06:22:20;99487.41;;;1.52;100.00
68525;BME280;55524;51.380;13.372;2022-11-23T06:27:33;99490.16;;;1.41;100.00
68525;BME280;55524;51.380;13.372;2022-11-23T06:30:08;99488.50;;;1.37;100.00
68525;BME280;55524;51.380;13.372;2022-11-23T06:33:00;99497.34;;;1.27;100.00
68525;BME280;55524;51.380;13.372;2022-11-23T06:35:24;99496.50;;;1.25;100.00
68525;BME280;55524;51.380;13.372;2022-11-23T06:38:11;99499.94;;;1.27;100.00
68525;BME280;55524;51.380;13.372;2022-11-23T06:40:37;99501.66;;;1.27;100.00
68525;BME280;55524;51.380;13.372;2022-11-23T06:43:41;99499.13;;;1.23;100.00
68525;BME280;55524;51.380;13.372;2022-11-23T06:49:15;99504.44;;;1.16;100.00
68525;BME280;55524;51.380;13.372;2022-11-23T06:51:47;99509.66;;;1.16;100.00
68525;BME280;55524;51.380;13.372;2022-11-23T06:54:34;99505.38;;;1.10;100.00
68525;BME280;55524;51.380;13.372;2022-11-23T06:57:20;99506.16;;;1.17;100.00
68525;BME280;55524;51.380;13.372;2022-11-23T07:02:54;99503.59;;;1.14;100.00
68525;BME280;55524;51.380;13.372;2022-11-23T07:08:47;99505.47;;;1.04;100.00
68525;BME280;55524;51.380;13.372;2022-11-23T07:11:16;99509.78;;;1.05;100.00
68525;BME280;55524;51.380;13.372;2022-11-23T07:14:02;99517.66;;;1.01;100.00
68525;BME280;55524;51.380;13.372;2022-11-23T07:16:49;99516.88;;;0.95;100.00
68525;BME280;55524;51.380;13.372;2022-11-23T07:19:35;99523.03;;;0.88;100.00
68525;BME280;55524;51.380;13.372;2022-11-23T07:22:22;99522.25;;;0.82;100.00
68525;BME280;55524;51.380;13.372;2022-11-23T07:24:48;99522.28;;;0.79;100.00
68525;BME280;55524;51.380;13.372;2022-11-23T07:27:16;99517.94;;;0.81;100.00
68525;BME280;55524;51.380;13.372;2022-11-23T07:30:08;99520.41;;;0.91;100.00
68525;BME280;55524;51.380;13.372;2022-11-23T07:33:05;99531.56;;;0.98;100.00
68525;BME280;55524;51.380;13.372;2022-11-23T07:35:51;99526.28;;;1.04;100.00
68525;BME280;55524;51.380;13.372;2022-11-23T07:38:37;99528.66;;;1.21;100.00
68525;BME280;55524;51.380;13.372;2022-11-23T07:41:47;99531.41;;;1.66;100.00
68525;BME280;55524;51.380;13.372;2022-11-23T07:44:33;99525.53;;;2.06;100.00
68525;BME280;55524;51.380;13.372;2022-11-23T07:47:19;99530.25;;;2.33;100.00
68525;BME280;55524;51.380;13.372;2022-11-23T07:50:07;99535.97;;;2.54;100.00
68525;BME280;55524;51.380;13.372;2022-11-23T07:52:52;99533.56;;;2.86;100.00
68525;BME280;55524;51.380;13.372;2022-11-23T07:55:31;99529.22;;;3.64;100.00
68525;BME280;55524;51.380;13.372;2022-11-23T07:58:07;99526.00;;;3.87;100.00
68525;BME280;55524;51.380;13.372;2022-11-23T08:00:55;99526.38;;;3.72;100.00
68525;BME280;55524;51.380;13.372;2022-11-23T08:04:01;99532.00;;;3.57;100.00
68525;BME280;55524;51.380;13.372;2022-11-23T08:06:36;99543.03;;;3.31;100.00
68525;BME280;55524;51.380;13.372;2022-11-23T08:09:43;99536.28;;;3.20;100.00
68525;BME280;55524;51.380;13.372;2022-11-23T08:12:21;99533.13;;;3.06;100.00
68525;BME280;55524;51.380;13.372;2022-11-23T08:15:12;99541.75;;;3.10;100.00
68525;BME280;55524;51.380;13.372;2022-11-23T08:18:02;99541.09;;;3.00;100.00
68525;BME280;55524;51.380;13.372;2022-11-23T08:20:47;99539.38;;;2.99;100.00
68525;BME280;55524;51.380;13.372;2022-11-23T08:23:37;99536.81;;;2.96;100.00
68525;BME280;55524;51.380;13.372;2022-11-23T08:26:12;99536.72;;;3.01;100.00
68525;BME280;55524;51.380;13.372;2022-11-23T08:29:05;99537.47;;;3.07;100.00
68525;BME280;55524;51.380;13.372;2022-11-23T08:31:57;99541.03;;;3.03;100.00
68525;BME280;55524;51.380;13.372;2022-11-23T08:34:46;99540.97;;;3.06;100.00
68525;BME280;55524;51.380;13.372;2022-11-23T08:37:15;99536.41;;;3.16;100.00
68525;BME280;55524;51.380;13.372;2022-11-23T08:43:47;99531.56;;;3.38;100.00
68525;BME280;55524;51.380;13.372;2022-11-23T08:46:37;99532.31;;;3.43;100.00
68525;BME280;55524;51.380;13.372;2022-11-23T08:49:24;99532.75;;;3.62;100.00
68525;BME280;55524;51.380;13.372;2022-11-23T08:52:31;99529.78;;;3.76;100.00
68525;BME280;55524;51.380;13.372;2022-11-23T08:55:09;99532.84;;;3.93;100.00
68525;BME280;55524;51.380;13.372;2022-11-23T08:57:58;99542.16;;;4.03;100.00
68525;BME280;55524;51.380;13.372;2022-11-23T09:00:47;99531.38;;;4.17;100.00
68525;BME280;55524;51.380;13.372;2022-11-23T09:03:37;99532.34;;;4.13;100.00
68525;BME280;55524;51.380;13.372;2022-11-23T09:06:23;99528.16;;;4.38;100.00
68525;BME280;55524;51.380;13.372;2022-11-23T09:09:33;99533.91;;;4.51;100.00
68525;BME280;55524;51.380;13.372;2022-11-23T09:12:19;99534.31;;;4.68;99.89
68525;BME280;55524;51.380;13.372;2022-11-23T09:14:48;99538.34;;;4.80;98.86
68525;BME280;55524;51.380;13.372;2022-11-23T09:17:53;99526.66;;;4.92;98.71
68525;BME280;55524;51.380;13.372;2022-11-23T09:20:57;99535.16;;;5.00;97.95
68525;BME280;55524;51.380;13.372;2022-11-23T09:26:50;99528.41;;;5.21;98.35
68525;BME280;55524;51.380;13.372;2022-11-23T09:29:34;99536.94;;;5.28;97.33
68525;BME280;55524;51.380;13.372;2022-11-23T09:32:41;99535.94;;;5.32;96.92
68525;BME280;55524;51.380;13.372;2022-11-23T09:35:53;99531.19;;;5.45;97.43
68525;BME280;55524;51.380;13.372;2022-11-23T09:38:14;99534.41;;;5.53;95.74
68525;BME280;55524;51.380;13.372;2022-11-23T09:40:50;99533.38;;;5.58;96.14
68525;BME280;55524;51.380;13.372;2022-11-23T09:49:11;99522.28;;;5.77;94.11
68525;BME280;55524;51.380;13.372;2022-11-23T09:52:00;99529.50;;;5.98;93.31
68525;BME280;55524;51.380;13.372;2022-11-23T09:54:50;99523.09;;;6.05;92.33
68525;BME280;55524;51.380;13.372;2022-11-23T09:57:29;99516.47;;;5.95;92.36
68525;BME280;55524;51.380;13.372;2022-11-23T10:00:23;99509.69;;;5.88;92.33
68525;BME280;55524;51.380;13.372;2022-11-23T10:03:16;99516.47;;;5.95;93.38
68525;BME280;55524;51.380;13.372;2022-11-23T10:25:23;99491.53;;;6.82;89.68
68525;BME280;55524;51.380;13.372;2022-11-23T10:28:16;99489.88;;;6.79;88.92
68525;BME280;55524;51.380;13.372;2022-11-23T10:34:12;99497.16;;;6.71;89.62
68525;BME280;55524;51.380;13.372;2022-11-23T10:36:45;99494.94;;;6.60;89.43
68525;BME280;55524;51.380;13.372;2022-11-23T10:39:54;99492.03;;;6.68;90.11
68525;BME280;55524;51.380;13.372;2022-11-23T10:43:13;99492.94;;;6.67;89.70
68525;BME280;55524;51.380;13.372;2022-11-23T10:46:42;99491.84;;;6.73;89.84
68525;BME280;55524;51.380;13.372;2022-11-23T10:54:48;99498.38;;;6.62;88.80
68525;BME280;55524;51.380;13.372;2022-11-23T11:02:57;99497.44;;;6.63;88.98
68525;BME280;55524;51.380;13.372;2022-11-23T11:09:00;99490.13;;;6.73;88.63
68525;BME280;55524;51.380;13.372;2022-11-23T11:11:51;99486.88;;;6.65;89.04
68525;BME280;55524;51.380;13.372;2022-11-23T11:14:39;99487.88;;;6.62;90.47
68525;BME280;55524;51.380;13.372;2022-11-23T11:17:26;99491.63;;;6.55;89.08
68525;BME280;55524;51.380;13.372;2022-11-23T11:20:41;99486.72;;;6.46;89.19
68525;BME280;55524;51.380;13.372;2022-11-23T11:23:22;99485.59;;;6.53;89.41
68525;BME280;55524;51.380;13.372;2022-11-23T11:26:26;99480.56;;;6.47;89.10
68525;BME280;55524;51.380;13.372;2022-11-23T11:36:02;99487.25;;;6.31;89.68
68525;BME280;55524;51.380;13.372;2022-11-23T11:38:49;99478.53;;;6.30;90.05
68525;BME280;55524;51.380;13.372;2022-11-23T11:41:54;99477.13;;;6.20;89.39
68525;BME280;55524;51.380;13.372;2022-11-23T11:44:42;99476.53;;;6.37;89.31
68525;BME280;55524;51.380;13.372;2022-11-23T11:53:01;99482.34;;;6.22;91.25
68525;BME280;55524;51.380;13.372;2022-11-23T11:55:54;99484.06;;;6.23;91.43
68525;BME280;55524;51.380;13.372;2022-11-23T11:58:49;99483.97;;;6.26;91.94
68525;BME280;55524;51.380;13.372;2022-11-23T12:10:54;99484.84;;;6.25;91.24
68525;BME280;55524;51.380;13.372;2022-11-23T12:14:09;99480.91;;;6.38;90.12
68525;BME280;55524;51.380;13.372;2022-11-23T12:33:22;99481.13;;;6.55;90.49
68525;BME280;55524;51.380;13.372;2022-11-23T12:36:32;99491.72;;;6.52;90.73
68525;BME280;55524;51.380;13.372;2022-11-23T12:53:48;99479.94;;;6.64;91.94
68525;BME280;55524;51.380;13.372;2022-11-23T13:01:40;99480.75;;;6.66;91.87
68525;BME280;55524;51.380;13.372;2022-11-23T13:26:36;99477.38;;;6.62;92.10
68525;BME280;55524;51.380;13.372;2022-11-23T13:58:35;99467.81;;;6.60;91.82
68525;BME280;55524;51.380;13.372;2022-11-23T14:00:55;99460.03;;;6.58;91.54
68525;BME280;55524;51.380;13.372;2022-11-23T14:26:48;99483.38;;;5.91;97.04
68525;BME280;55524;51.380;13.372;2022-11-23T14:44:48;99497.91;;;5.75;97.95
68525;BME280;55524;51.380;13.372;2022-11-23T14:47:28;99501.72;;;5.64;98.51
68525;BME280;55524;51.380;13.372;2022-11-23T15:14:14;99499.03;;;5.11;100.00
68525;BME280;55524;51.380;13.372;2022-11-23T15:17:10;99508.66;;;5.11;100.00
68525;BME280;55524;51.380;13.372;2022-11-23T15:20:09;99495.81;;;5.03;100.00
68525;BME280;55524;51.380;13.372;2022-11-23T15:22:37;99503.81;;;4.97;100.00
68525;BME280;55524;51.380;13.372;2022-11-23T15:25:42;99502.38;;;4.87;100.00
68525;BME280;55524;51.380;13.372;2022-11-23T15:28:28;99512.34;;;4.74;100.00
68525;BME280;55524;51.380;13.372;2022-11-23T15:31:05;99515.19;;;4.66;100.00
68525;BME280;55524;51.380;13.372;2022-11-23T15:34:10;99519.81;;;4.57;100.00
68525;BME280;55524;51.380;13.372;2022-11-23T15:37:00;99523.56;;;4.48;100.00
68525;BME280;55524;51.380;13.372;2022-11-23T15:39:48;99522.91;;;4.40;100.00
68525;BME280;55524;51.380;13.372;2022-11-23T15:42:17;99524.13;;;4.27;100.00
68525;BME280;55524;51.380;13.372;2022-11-23T15:50:57;99531.03;;;3.97;100.00
68525;BME280;55524;51.380;13.372;2022-11-23T15:56:14;99528.75;;;3.83;100.00
68525;BME280;55524;51.380;13.372;2022-11-23T15:58:47;99519.31;;;3.76;100.00
68525;BME280;55524;51.380;13.372;2022-11-23T16:01:14;99526.97;;;3.83;100.00
68525;BME280;55524;51.380;13.372;2022-11-23T16:04:00;99529.72;;;3.79;100.00
68525;BME280;55524;51.380;13.372;2022-11-23T16:07:05;99529.88;;;3.73;100.00
68525;BME280;55524;51.380;13.372;2022-11-23T16:09:37;99529.22;;;3.64;100.00
68525;BME280;55524;51.380;13.372;2022-11-23T16:21:00;99532.13;;;3.51;100.00
68525;BME280;55524;51.380;13.372;2022-11-23T16:23:54;99533.84;;;3.52;100.00
68525;BME280;55524;51.380;13.372;2022-11-23T16:26:54;99543.59;;;3.45;100.00
68525;BME280;55524;51.380;13.372;2022-11-23T16:29:47;99541.97;;;3.39;100.00
68525;BME280;55524;51.380;13.372;2022-11-23T16:32:52;99542.06;;;3.35;100.00
68525;BME280;55524;51.380;13.372;2022-11-23T16:35:38;99544.75;;;3.32;100.00
68525;BME280;55524;51.380;13.372;2022-11-23T16:41:30;99539.47;;;3.35;100.00
68525;BME280;55524;51.380;13.372;2022-11-23T16:43:57;99542.13;;;3.32;100.00
68525;BME280;55524;51.380;13.372;2022-11-23T16:46:43;99540.47;;;3.29;100.00
68525;BME280;55524;51.380;13.372;2022-11-23T16:49:34;99541.50;;;3.20;100.00
68525;BME280;55524;51.380;13.372;2022-11-23T16:52:44;99541.31;;;3.30;100.00
68525;BME280;55524;51.380;13.372;2022-11-23T16:55:10;99547.72;;;3.15;100.00
68525;BME280;55524;51.380;13.372;2022-11-23T16:57:46;99544.44;;;3.07;100.00
68525;BME280;55524;51.380;13.372;2022-11-23T17:03:41;99543.06;;;2.89;100.00
68525;BME280;55524;51.380;13.372;2022-11-23T17:06:57;99548.28;;;2.89;100.00
68525;BME280;55524;51.380;13.372;2022-11-23T17:12:25;99546.59;;;2.86;100.00
68525;BME280;55524;51.380;13.372;2022-11-23T17:15:06;99551.72;;;2.91;100.00
68525;BME280;55524;51.380;13.372;2022-11-23T17:17:50;99544.69;;;2.94;100.00
68525;BME280;55524;51.380;13.372;2022-11-23T17:20:37;99542.09;;;2.94;100.00
68525;BME280;55524;51.380;13.372;2022-11-23T17:23:27;99543.16;;;2.86;100.00
68525;BME280;55524;51.380;13.372;2022-11-23T17:26:02;99545.13;;;2.73;100.00
68525;BME280;55524;51.380;13.372;2022-11-23T17:28:34;99548.69;;;2.69;100.00
68525;BME280;55524;51.380;13.372;2022-11-23T17:31:01;99548.72;;;2.67;100.00
68525;BME280;55524;51.380;13.372;2022-11-23T17:33:34;99550.47;;;2.67;100.00
68525;BME280;55524;51.380;13.372;2022-11-23T17:39:33;99549.00;;;2.54;100.00
68525;BME280;55524;51.380;13.372;2022-11-23T17:43:00;99554.13;;;2.58;100.00
68525;BME280;55524;51.380;13.372;2022-11-23T17:45:26;99561.91;;;2.61;100.00
68525;BME280;55524;51.380;13.372;2022-11-23T17:48:13;99554.09;;;2.60;100.00
68525;BME280;55524;51.380;13.372;2022-11-23T17:51:08;99564.53;;;2.60;100.00
68525;BME280;55524;51.380;13.372;2022-11-23T17:53:57;99569.88;;;2.52;100.00
68525;BME280;55524;51.380;13.372;2022-11-23T17:56:50;99579.50;;;2.50;100.00
68525;BME280;55524;51.380;13.372;2022-11-23T17:59:36;99568.31;;;2.43;100.00
68525;BME280;55524;51.380;13.372;2022-11-23T18:02:22;99570.00;;;2.44;100.00
68525;BME280;55524;51.380;13.372;2022-11-23T18:05:12;99570.06;;;2.43;100.00
68525;BME280;55524;51.380;13.372;2022-11-23T18:08:01;99574.44;;;2.41;100.00
68525;BME280;55524;51.380;13.372;2022-11-23T18:11:03;99576.31;;;2.34;100.00
68525;BME280;55524;51.380;13.372;2022-11-23T18:13:30;99576.31;;;2.33;100.00
68525;BME280;55524;51.380;13.372;2022-11-23T18:16:08;99581.66;;;2.27;100.00
68525;BME280;55524;51.380;13.372;2022-11-23T18:19:00;99590.50;;;2.16;100.00
68525;BME280;55524;51.380;13.372;2022-11-23T18:22:05;99581.06;;;2.09;100.00
68525;BME280;55524;51.380;13.372;2022-11-23T18:24:56;99584.66;;;2.04;100.00
68525;BME280;55524;51.380;13.372;2022-11-23T18:27:49;99585.56;;;2.01;100.00
68525;BME280;55524;51.380;13.372;2022-11-23T18:30:38;99578.72;;;1.95;100.00
68525;BME280;55524;51.380;13.372;2022-11-23T18:33:28;99584.00;;;1.89;100.00
68525;BME280;55524;51.380;13.372;2022-11-23T18:39:16;99585.94;;;1.77;100.00
68525;BME280;55524;51.380;13.372;2022-11-23T18:44:57;99587.81;;;1.68;100.00
68525;BME280;55524;51.380;13.372;2022-11-23T18:47:45;99582.56;;;1.71;100.00
68525;BME280;55524;51.380;13.372;2022-11-23T18:50:31;99583.38;;;1.73;100.00
68525;BME280;55524;51.380;13.372;2022-11-23T18:53:49;99593.91;;;1.67;100.00
68525;BME280;55524;51.380;13.372;2022-11-23T18:56:22;99593.09;;;1.64;100.00
68525;BME280;55524;51.380;13.372;2022-11-23T18:59:08;99593.16;;;1.58;100.00
68525;BME280;55524;51.380;13.372;2022-11-23T19:01:49;99593.28;;;1.52;100.00
68525;BME280;55524;51.380;13.372;2022-11-23T19:04:16;99591.59;;;1.47;100.00
68525;BME280;55524;51.380;13.372;2022-11-23T19:10:10;99605.69;;;1.33;100.00
68525;BME280;55524;51.380;13.372;2022-11-23T19:12:36;99601.38;;;1.32;100.00
68525;BME280;55524;51.380;13.372;2022-11-23T19:15:23;99603.16;;;1.27;100.00
68525;BME280;55524;51.380;13.372;2022-11-23T19:18:10;99610.19;;;1.18;100.00
68525;BME280;55524;51.380;13.372;2022-11-23T19:20:57;99614.59;;;1.13;100.00
68525;BME280;55524;51.380;13.372;2022-11-23T19:23:46;99615.63;;;1.03;100.00
68525;BME280;55524;51.380;13.372;2022-11-23T19:26:09;99621.78;;;0.96;100.00
68525;BME280;55524;51.380;13.372;2022-11-23T19:28:45;99616.63;;;0.90;100.00
68525;BME280;55524;51.380;13.372;2022-11-23T19:31:16;99621.91;;;0.84;100.00
68525;BME280;55524;51.380;13.372;2022-11-23T19:33:52;99627.13;;;0.79;100.00
68525;BME280;55524;51.380;13.372;2022-11-23T19:36:41;99631.53;;;0.76;100.00